createdAt,value
2019-02-12T00:01:17.512Z,7.50
2019-02-12T00:03:46.143Z,13.40
2019-02-12T00:06:15.084Z,12.53
2019-02-12T00:08:44.015Z,8.47
2019-02-12T00:11:12.736Z,5.50
2019-02-12T00:13:41.361Z,12.13
2019-02-12T00:16:10.008Z,10.07
2019-02-12T00:18:38.704Z,7.77
2019-02-12T00:21:09.168Z,7.03
2019-02-12T00:23:37.756Z,9.53
2019-02-12T00:26:06.404Z,16.97
2019-02-12T00:28:35.039Z,20.53
2019-02-12T00:31:03.835Z,8.17
2019-02-12T00:33:32.468Z,13.57
2019-02-12T00:36:01.096Z,9.60
2019-02-12T00:38:29.748Z,10.93
2019-02-12T00:40:58.382Z,9.43
2019-02-12T00:43:26.988Z,14.30
2019-02-12T00:45:55.806Z,9.17
2019-02-12T00:48:24.410Z,10.03
2019-02-12T00:50:53.896Z,8.97
2019-02-12T00:53:22.533Z,18.17
2019-02-12T00:55:51.181Z,5.33
2019-02-12T00:58:19.936Z,15.10
2019-02-12T01:00:48.581Z,18.57
2019-02-12T01:03:17.267Z,19.10
2019-02-12T01:05:45.910Z,9.87
2019-02-12T01:08:14.677Z,8.70
2019-02-12T01:10:43.372Z,15.17
2019-02-12T01:13:12.069Z,10.53
2019-02-12T01:15:40.700Z,8.60
2019-02-12T01:18:09.324Z,8.83
2019-02-12T01:20:37.956Z,9.33
2019-02-12T01:23:06.580Z,9.37
2019-02-12T01:25:35.295Z,10.50
2019-02-12T01:28:03.939Z,10.43
2019-02-12T01:30:32.920Z,15.23
2019-02-12T01:33:01.535Z,9.40
2019-02-12T01:35:30.215Z,14.03
2019-02-12T01:37:58.847Z,14.90
2019-02-12T01:40:27.480Z,12.27
2019-02-12T01:42:56.103Z,9.30
2019-02-12T01:45:24.728Z,9.07
2019-02-12T01:47:53.351Z,10.70
2019-02-12T01:50:22.190Z,15.07
2019-02-12T01:52:50.823Z,14.50
2019-02-12T01:55:19.459Z,14.70
2019-02-12T01:57:48.121Z,16.67
2019-02-12T02:00:16.754Z,12.83
2019-02-12T02:02:45.388Z,11.27
2019-02-12T02:05:13.999Z,14.67
2019-02-12T02:07:42.634Z,15.37
2019-02-12T02:10:17.081Z,18.80
2019-02-12T02:12:45.804Z,13.80
2019-02-12T02:15:14.918Z,21.30
2019-02-12T02:17:43.531Z,15.43
2019-02-12T02:20:13.210Z,14.83
2019-02-12T02:22:41.943Z,11.77
2019-02-12T02:25:11.004Z,13.90
2019-02-12T02:27:39.977Z,10.73
2019-02-12T02:30:10.155Z,18.97
2019-02-12T02:32:38.803Z,10.50
2019-02-12T02:35:07.659Z,13.97
2019-02-12T02:37:36.340Z,9.90
2019-02-12T02:40:05.910Z,19.63
2019-02-12T02:42:34.536Z,12.07
2019-02-12T02:45:03.236Z,27.37
2019-02-12T02:47:32.118Z,15.40
2019-02-12T02:50:03.319Z,7.77
2019-02-12T02:52:31.363Z,16.00
2019-02-12T02:54:59.976Z,8.40
2019-02-12T02:57:28.598Z,20.43
2019-02-12T02:59:57.216Z,10.17
2019-02-12T03:02:25.878Z,7.80
2019-02-12T03:04:54.506Z,14.50
2019-02-12T03:07:23.136Z,11.90
2019-02-12T03:09:52.003Z,9.20
2019-02-12T03:12:20.636Z,13.03
2019-02-12T03:14:49.267Z,14.33
2019-02-12T03:17:17.952Z,14.83
2019-02-12T03:19:46.561Z,14.60
2019-02-12T03:22:15.186Z,13.13
2019-02-12T03:24:43.864Z,10.90
2019-02-12T03:27:12.477Z,14.37
2019-02-12T03:29:41.106Z,12.20
2019-02-12T03:32:09.742Z,13.13
2019-02-12T03:34:38.673Z,11.97
2019-02-12T03:37:07.276Z,11.83
2019-02-12T03:39:35.912Z,13.00
2019-02-12T03:42:04.631Z,11.87
2019-02-12T03:44:33.340Z,11.97
2019-02-12T03:47:01.956Z,16.77
2019-02-12T03:49:30.846Z,21.50
2019-02-12T03:51:59.458Z,14.20
2019-02-12T03:54:28.315Z,19.50
2019-02-12T03:56:57.072Z,10.80
2019-02-12T03:59:45.005Z,7.23
2019-02-12T04:02:33.375Z,13.23
2019-02-12T04:05:21.294Z,19.23
2019-02-12T04:08:09.200Z,13.00
2019-02-12T04:10:57.122Z,11.23
2019-02-12T04:13:45.027Z,12.53
2019-02-12T04:16:32.927Z,12.17
2019-02-12T04:19:20.844Z,13.83
2019-02-12T04:22:08.732Z,23.23
2019-02-12T04:24:56.644Z,13.27
2019-02-12T04:27:44.524Z,13.27
2019-02-12T04:30:32.434Z,17.00
2019-02-12T04:33:13.149Z,15.37
2019-02-12T04:35:53.784Z,10.50
2019-02-12T04:38:34.404Z,11.70
2019-02-12T04:41:15.013Z,15.07
2019-02-12T04:43:55.581Z,15.80
2019-02-12T04:49:18.718Z,12.17
2019-02-12T04:54:30.120Z,12.47
2019-02-12T04:57:18.043Z,10.03
2019-02-12T05:00:07.102Z,16.80
2019-02-12T05:02:55.353Z,17.53
2019-02-12T05:05:43.300Z,7.10
2019-02-12T05:08:50.468Z,10.93
2019-02-12T05:11:38.404Z,7.33
2019-02-12T05:14:26.312Z,9.80
2019-02-12T05:17:14.207Z,8.13
2019-02-12T05:20:02.138Z,8.23
2019-02-12T05:22:50.259Z,9.13
2019-02-12T05:25:30.633Z,6.30
2019-02-12T05:28:11.353Z,11.90
2019-02-12T05:30:51.965Z,12.97
2019-02-12T05:33:32.729Z,14.43
2019-02-12T05:36:13.564Z,6.97
2019-02-12T05:38:54.450Z,11.87
2019-02-12T05:44:17.457Z,13.17
2019-02-12T05:46:58.260Z,7.17
2019-02-12T05:49:39.132Z,8.23
2019-02-12T05:52:19.535Z,7.13
2019-02-12T05:55:00.602Z,10.90
2019-02-12T05:57:41.336Z,13.17
2019-02-12T06:00:24.560Z,15.70
2019-02-12T06:03:04.887Z,15.43
2019-02-12T06:05:45.597Z,12.07
2019-02-12T06:08:26.520Z,22.87
2019-02-12T06:11:07.698Z,13.23
2019-02-12T06:13:48.500Z,10.50
2019-02-12T06:19:12.202Z,16.30
2019-02-12T06:21:53.379Z,7.70
2019-02-12T06:24:34.717Z,17.57
2019-02-12T06:27:15.576Z,14.50
2019-02-12T06:29:56.712Z,10.10
2019-02-12T06:32:37.266Z,13.80
2019-02-12T06:35:17.864Z,14.10
2019-02-12T06:37:58.605Z,11.20
2019-02-12T06:40:37.689Z,14.80
2019-02-12T06:43:25.734Z,8.23
2019-02-12T06:46:13.653Z,13.43
2019-02-12T06:49:01.571Z,12.30
2019-02-12T06:51:49.483Z,13.70
2019-02-12T06:54:37.392Z,10.97
2019-02-12T06:57:25.566Z,8.63
2019-02-12T07:00:13.473Z,8.50
2019-02-12T07:06:37.621Z,12.33
2019-02-12T07:09:44.865Z,11.80
2019-02-12T07:12:37.121Z,15.60
2019-02-12T07:15:44.273Z,7.47
2019-02-12T07:18:25.219Z,9.27
2019-02-12T07:23:48.634Z,12.37
2019-02-12T07:26:29.077Z,9.40
2019-02-12T07:29:13.397Z,11.73
2019-02-12T07:32:16.536Z,8.40
2019-02-12T07:35:31.659Z,7.03
2019-02-12T07:38:26.172Z,10.37
2019-02-12T07:41:44.701Z,9.50
2019-02-12T07:44:31.896Z,7.40
2019-02-12T07:47:21.262Z,12.23
2019-02-12T07:50:33.312Z,10.50
2019-02-12T07:53:31.159Z,7.90
2019-02-12T07:56:30.815Z,19.03
2019-02-12T07:59:33.101Z,9.27
2019-02-12T08:02:26.177Z,13.47
2019-02-12T08:05:42.043Z,12.23
2019-02-12T08:09:07.132Z,13.13
2019-02-12T08:11:41.094Z,12.10
2019-02-12T08:14:52.808Z,13.23
2019-02-12T08:17:33.287Z,12.27
2019-02-12T08:20:38.786Z,17.73
2019-02-12T08:24:01.067Z,10.37
2019-02-12T08:27:32.049Z,11.80
2019-02-12T08:30:52.248Z,7.67
2019-02-12T08:33:46.536Z,13.43
2019-02-12T08:36:50.204Z,10.03
2019-02-12T08:39:29.445Z,9.60
2019-02-12T08:42:36.090Z,14.90
2019-02-12T08:45:44.744Z,10.80
2019-02-12T08:48:41.822Z,17.50
2019-02-12T08:51:33.853Z,13.47
2019-02-12T08:54:28.685Z,18.23
2019-02-12T08:57:33.184Z,9.17
2019-02-12T09:00:30.604Z,13.33
2019-02-12T09:03:39.205Z,8.37
2019-02-12T09:06:18.297Z,12.30
2019-02-12T09:09:23.998Z,10.20
2019-02-12T09:12:17.851Z,10.53
2019-02-12T09:15:17.859Z,12.20
2019-02-12T09:18:08.705Z,11.70
2019-02-12T09:21:01.965Z,9.67
2019-02-12T09:23:59.455Z,12.40
2019-02-12T09:26:56.216Z,16.80
2019-02-12T09:29:51.750Z,15.40
2019-02-12T09:33:06.835Z,15.63
2019-02-12T09:35:58.367Z,14.80
2019-02-12T09:39:22.951Z,15.40
2019-02-12T09:42:06.803Z,11.67
2019-02-12T09:45:12.438Z,10.63
2019-02-12T09:48:02.111Z,10.40
2019-02-12T09:51:12.064Z,13.10
2019-02-12T09:54:08.875Z,8.87
2019-02-12T09:57:13.450Z,16.53
2019-02-12T09:59:53.798Z,12.90
2019-02-12T10:02:44.176Z,12.77
2019-02-12T10:05:29.461Z,13.13
2019-02-12T10:08:20.647Z,15.17
2019-02-12T10:11:22.043Z,23.60
2019-02-12T10:14:19.067Z,10.70
2019-02-12T10:17:01.984Z,19.73
2019-02-12T10:19:50.788Z,19.87
2019-02-12T10:22:52.053Z,16.10
2019-02-12T10:25:33.297Z,17.83
2019-02-12T10:28:24.192Z,21.00
2019-02-12T10:31:14.707Z,14.73
2019-02-12T10:33:43.324Z,15.33
2019-02-12T10:36:12.001Z,26.43
2019-02-12T10:38:40.652Z,16.47
2019-02-12T10:41:09.281Z,17.63
2019-02-12T10:43:37.906Z,32.67
2019-02-12T10:46:06.548Z,10.13
2019-02-12T10:48:35.204Z,24.50
2019-02-12T10:51:03.921Z,17.13
2019-02-12T10:53:32.561Z,17.47
2019-02-12T10:56:01.231Z,23.17
2019-02-12T10:58:30.196Z,16.90
2019-02-12T11:00:58.897Z,18.17
2019-02-12T11:03:27.540Z,17.27
2019-02-12T11:05:56.204Z,16.60
2019-02-12T11:08:25.068Z,17.07
2019-02-12T11:10:53.687Z,10.57
2019-02-12T11:13:22.378Z,18.63
2019-02-12T11:15:50.990Z,11.47
2019-02-12T11:18:19.638Z,12.63
2019-02-12T11:20:48.273Z,12.37
2019-02-12T11:23:17.104Z,10.93
2019-02-12T11:25:45.986Z,15.23
2019-02-12T11:28:14.639Z,14.13
2019-02-12T11:30:43.266Z,16.23
2019-02-12T11:33:12.103Z,18.73
2019-02-12T11:35:40.732Z,14.73
2019-02-12T11:38:09.597Z,19.63
2019-02-12T11:40:38.211Z,11.80
2019-02-12T11:43:07.056Z,9.70
2019-02-12T11:45:35.677Z,12.20
2019-02-12T11:48:04.351Z,14.33
2019-02-12T11:50:32.975Z,12.67
2019-02-12T11:53:01.586Z,11.80
2019-02-12T11:55:30.207Z,14.80
2019-02-12T11:57:58.825Z,14.57
2019-02-12T12:00:32.696Z,11.43
2019-02-12T12:03:01.372Z,10.10
2019-02-12T12:05:29.995Z,10.83
2019-02-12T12:07:58.604Z,14.43
2019-02-12T12:10:27.250Z,9.83
2019-02-12T12:12:55.905Z,6.43
2019-02-12T12:15:24.545Z,8.47
2019-02-12T12:17:53.203Z,15.47
2019-02-12T12:20:21.825Z,6.50
2019-02-12T12:22:50.463Z,12.63
2019-02-12T12:25:19.091Z,12.77
2019-02-12T12:27:47.714Z,11.93
2019-02-12T12:30:16.482Z,10.50
2019-02-12T12:32:45.246Z,6.53
2019-02-12T12:35:13.902Z,15.97
2019-02-12T12:37:42.503Z,10.07
2019-02-12T12:40:11.236Z,9.33
2019-02-12T12:42:39.891Z,7.87
2019-02-12T12:45:09.466Z,8.43
2019-02-12T12:47:38.315Z,11.10
2019-02-12T12:50:08.198Z,9.70
2019-02-12T12:52:37.293Z,14.93
2019-02-12T12:55:06.039Z,7.83
2019-02-12T12:57:41.589Z,7.40
2019-02-12T13:00:06.133Z,14.87
2019-02-12T13:02:34.993Z,9.43
2019-02-12T13:05:03.809Z,9.87
2019-02-12T13:07:32.498Z,12.50
2019-02-12T13:10:01.141Z,9.50
2019-02-12T13:12:30.340Z,11.53
2019-02-12T13:14:58.988Z,8.30
2019-02-12T13:17:27.705Z,13.90
2019-02-12T13:19:56.364Z,17.93
2019-02-12T13:22:24.991Z,11.80
2019-02-12T13:24:53.601Z,12.40
2019-02-12T13:27:22.344Z,10.07
2019-02-12T13:29:51.029Z,14.33
2019-02-12T13:32:19.672Z,16.10
2019-02-12T13:34:48.322Z,19.30
2019-02-12T13:37:16.982Z,11.43
2019-02-12T13:39:45.685Z,7.90
2019-02-12T13:42:14.303Z,10.17
2019-02-12T13:44:44.975Z,11.97
2019-02-12T13:47:13.610Z,16.97
2019-02-12T13:49:42.748Z,11.70
2019-02-12T13:52:11.435Z,14.70
2019-02-12T13:54:40.069Z,14.50
2019-02-12T13:57:08.713Z,19.03
2019-02-12T13:59:37.337Z,9.47
2019-02-12T14:02:05.947Z,13.40
2019-02-12T14:04:34.569Z,27.70
2019-02-12T14:07:03.442Z,13.43
2019-02-12T14:09:32.094Z,15.93
2019-02-12T14:12:00.892Z,16.63
2019-02-12T14:14:29.527Z,9.90
2019-02-12T14:16:58.395Z,20.37
2019-02-12T14:19:26.991Z,18.60
2019-02-12T14:21:55.645Z,11.97
2019-02-12T14:24:24.480Z,12.17
2019-02-12T14:26:53.129Z,11.07
2019-02-12T14:29:21.773Z,11.20
2019-02-12T14:31:52.981Z,8.40
2019-02-12T14:34:20.764Z,7.13
2019-02-12T14:36:49.387Z,13.67
2019-02-12T14:39:18.000Z,9.73
2019-02-12T14:41:46.748Z,7.97
2019-02-12T14:44:15.406Z,15.20
2019-02-12T14:46:44.067Z,14.87
2019-02-12T14:49:12.913Z,18.60
2019-02-12T14:51:41.559Z,10.00
2019-02-12T14:54:10.174Z,16.63
2019-02-12T14:56:38.799Z,23.67
2019-02-12T14:59:07.470Z,8.87
2019-02-12T15:01:36.121Z,12.20
2019-02-12T15:04:04.718Z,12.77
2019-02-12T15:06:33.348Z,11.63
2019-02-12T15:09:02.013Z,18.70
2019-02-12T15:11:30.658Z,20.57
2019-02-12T15:13:59.268Z,25.03
2019-02-12T15:16:27.960Z,18.30
2019-02-12T15:18:56.617Z,10.63
2019-02-12T15:21:25.219Z,16.30
2019-02-12T15:23:54.091Z,20.03
2019-02-12T15:26:22.723Z,18.50
2019-02-12T15:28:51.373Z,23.00
2019-02-12T15:31:20.010Z,17.83
2019-02-12T15:33:48.723Z,23.43
2019-02-12T15:36:17.412Z,23.60
2019-02-12T15:38:46.095Z,12.20
2019-02-12T15:41:14.771Z,16.20
2019-02-12T15:43:43.519Z,15.10
2019-02-12T15:46:12.193Z,26.87
2019-02-12T15:48:40.840Z,18.63
2019-02-12T15:51:09.739Z,18.70
2019-02-12T15:53:38.355Z,18.77
2019-02-12T15:56:07.006Z,17.87
2019-02-12T15:58:35.720Z,17.30
2019-02-12T16:01:06.083Z,21.47
2019-02-12T16:03:36.481Z,16.63
2019-02-12T16:06:05.143Z,24.40
2019-02-12T16:08:34.107Z,19.63
2019-02-12T16:11:02.851Z,18.80
2019-02-12T16:13:32.791Z,15.37
2019-02-12T16:16:01.869Z,13.93
2019-02-12T16:18:30.511Z,23.20
2019-02-12T16:20:59.111Z,15.33
2019-02-12T16:23:27.761Z,16.50
2019-02-12T16:25:59.560Z,19.50
2019-02-12T16:28:26.740Z,21.93
2019-02-12T16:30:55.355Z,13.33
2019-02-12T16:33:23.986Z,17.03
2019-02-12T16:35:52.613Z,19.50
2019-02-12T16:38:21.259Z,19.23
2019-02-12T16:40:50.180Z,21.20
2019-02-12T16:43:19.090Z,27.53
2019-02-12T16:45:53.135Z,32.13
2019-02-12T16:48:21.768Z,22.27
2019-02-12T16:50:50.449Z,23.43
2019-02-12T16:53:19.079Z,29.20
2019-02-12T16:55:47.737Z,19.77
2019-02-12T16:58:16.430Z,24.73
2019-02-12T17:00:45.131Z,21.53
2019-02-12T17:03:13.758Z,30.67
2019-02-12T17:05:42.388Z,29.70
2019-02-12T17:08:11.123Z,22.67
2019-02-12T17:10:39.933Z,26.60
2019-02-12T17:13:09.383Z,33.73
2019-02-12T17:15:37.975Z,34.80
2019-02-12T17:18:06.844Z,29.40
2019-02-12T17:20:35.520Z,24.00
2019-02-12T17:23:04.151Z,32.43
2019-02-12T17:25:32.832Z,33.20
2019-02-12T17:28:01.495Z,33.40
2019-02-12T17:30:30.116Z,31.73
2019-02-12T17:32:58.725Z,42.23
2019-02-12T17:35:27.365Z,28.03
2019-02-12T17:37:55.973Z,27.97
2019-02-12T17:40:24.978Z,32.90
2019-02-12T17:42:53.620Z,33.37
2019-02-12T17:45:22.293Z,38.60
2019-02-12T17:47:50.945Z,27.83
2019-02-12T17:50:19.816Z,30.33
2019-02-12T17:52:48.545Z,35.07
2019-02-12T17:55:17.197Z,26.00
2019-02-12T17:57:46.058Z,42.93
2019-02-12T18:00:17.241Z,35.37
2019-02-12T18:02:45.951Z,29.80
2019-02-12T18:05:14.788Z,43.10
2019-02-12T18:07:43.419Z,37.90
2019-02-12T18:10:12.161Z,41.57
2019-02-12T18:12:40.807Z,35.77
2019-02-12T18:15:10.094Z,31.03
2019-02-12T18:17:38.716Z,37.43
2019-02-12T18:20:08.376Z,40.90
2019-02-12T18:22:37.063Z,35.90
2019-02-12T18:25:06.316Z,39.80
2019-02-12T18:27:35.201Z,36.03
2019-02-12T18:30:04.779Z,41.23
2019-02-12T18:32:33.411Z,39.77
2019-02-12T18:35:02.189Z,37.93
2019-02-12T18:37:30.811Z,49.57
2019-02-12T18:39:59.472Z,41.13
2019-02-12T18:42:28.398Z,50.03
2019-02-12T18:44:57.095Z,44.27
2019-02-12T18:47:25.713Z,47.97
2019-02-12T18:49:54.343Z,52.47
2019-02-12T18:52:22.962Z,53.23
2019-02-12T18:54:51.968Z,47.27
2019-02-12T18:57:20.680Z,44.03
2019-02-12T18:59:49.388Z,46.87
2019-02-12T19:02:18.398Z,46.30
2019-02-12T19:04:47.107Z,39.90
2019-02-12T19:07:15.794Z,54.83
2019-02-12T19:09:44.485Z,45.57
2019-02-12T19:12:13.117Z,42.53
2019-02-12T19:14:41.970Z,48.70
2019-02-12T19:17:10.673Z,50.90
2019-02-12T19:19:39.331Z,42.80
2019-02-12T19:22:08.020Z,41.10
2019-02-12T19:24:36.670Z,43.77
2019-02-12T19:27:05.368Z,39.07
2019-02-12T19:29:33.996Z,43.20
2019-02-12T19:32:02.610Z,49.80
2019-02-12T19:34:32.354Z,46.50
2019-02-12T19:37:01.044Z,43.47
2019-02-12T19:39:29.708Z,52.23
2019-02-12T19:41:58.367Z,52.53
2019-02-12T19:44:26.981Z,50.60
2019-02-12T19:46:55.629Z,48.63
2019-02-12T19:49:24.496Z,41.70
2019-02-12T19:51:53.377Z,46.57
2019-02-12T19:54:22.016Z,47.00
2019-02-12T19:56:57.935Z,47.47
2019-02-12T19:59:21.115Z,46.30
2019-02-12T20:01:51.505Z,46.03
2019-02-12T20:04:20.411Z,50.67
2019-02-12T20:06:49.379Z,47.03
2019-02-12T20:09:21.095Z,51.07
2019-02-12T20:11:49.799Z,45.70
2019-02-12T20:14:18.436Z,55.73
2019-02-12T20:16:47.088Z,44.40
2019-02-12T20:19:16.001Z,48.60
2019-02-12T20:21:44.699Z,44.77
2019-02-12T20:24:13.450Z,48.80
2019-02-12T20:26:42.340Z,56.77
2019-02-12T20:29:10.980Z,47.43
2019-02-12T20:31:39.655Z,52.00
2019-02-12T20:34:08.315Z,44.40
2019-02-12T20:36:36.976Z,46.00
2019-02-12T20:39:06.668Z,49.67
2019-02-12T20:41:35.365Z,44.03
2019-02-12T20:44:04.140Z,50.07
2019-02-12T20:46:32.799Z,50.03
2019-02-12T20:49:01.437Z,61.90
2019-02-12T20:51:30.136Z,57.40
2019-02-12T20:53:58.988Z,51.23
2019-02-12T20:56:27.696Z,50.20
2019-02-12T20:58:56.385Z,55.73
2019-02-12T21:01:25.042Z,53.30
2019-02-12T21:03:53.780Z,54.53
2019-02-12T21:06:22.655Z,52.13
2019-02-12T21:08:51.391Z,52.80
2019-02-12T21:11:20.235Z,50.40
2019-02-12T21:13:48.943Z,48.70
2019-02-12T21:16:17.691Z,57.30
2019-02-12T21:18:46.347Z,50.60
2019-02-12T21:21:15.261Z,57.63
2019-02-12T21:23:44.138Z,52.80
2019-02-12T21:26:12.806Z,57.23
2019-02-12T21:28:41.463Z,50.57
2019-02-12T21:31:10.120Z,49.43
2019-02-12T21:33:40.418Z,52.17
2019-02-12T21:36:09.294Z,57.67
2019-02-12T21:38:38.506Z,50.20
2019-02-12T21:41:07.212Z,51.83
2019-02-12T21:43:35.829Z,60.10
2019-02-12T21:46:05.262Z,55.43
2019-02-12T21:48:33.971Z,49.10
2019-02-12T21:51:02.630Z,51.77
2019-02-12T21:53:31.239Z,56.27
2019-02-12T21:55:59.951Z,54.77
2019-02-12T21:58:28.704Z,56.10
2019-02-12T22:00:57.300Z,53.97
2019-02-12T22:03:26.323Z,54.63
2019-02-12T22:05:57.721Z,57.63
2019-02-12T22:08:26.376Z,54.07
2019-02-12T22:10:55.138Z,65.70
2019-02-12T22:13:23.803Z,56.73
2019-02-12T22:15:52.452Z,59.17
2019-02-12T22:18:21.156Z,59.33
2019-02-12T22:20:49.987Z,53.80
2019-02-12T22:23:18.716Z,57.97
2019-02-12T22:25:47.317Z,58.13
2019-02-12T22:28:15.943Z,55.47
2019-02-12T22:30:44.960Z,57.57
2019-02-12T22:33:13.639Z,58.07
2019-02-12T22:35:42.258Z,55.63
2019-02-12T22:38:10.896Z,58.87
2019-02-12T22:40:39.520Z,56.23
2019-02-12T22:43:08.148Z,54.93
2019-02-12T22:45:36.815Z,52.13
2019-02-12T22:48:05.444Z,54.67
2019-02-12T22:50:34.052Z,55.77
2019-02-12T22:53:02.682Z,48.20
2019-02-12T22:55:31.392Z,48.23
2019-02-12T22:58:00.271Z,50.20
2019-02-12T23:00:39.317Z,52.13
2019-02-12T23:03:08.175Z,50.83
2019-02-12T23:05:36.874Z,47.97
2019-02-12T23:08:05.506Z,56.03
2019-02-12T23:10:34.207Z,54.47
2019-02-12T23:13:02.838Z,50.47
2019-02-12T23:15:31.522Z,46.87
2019-02-12T23:18:00.211Z,54.87
2019-02-12T23:20:28.829Z,52.80
2019-02-12T23:22:57.706Z,48.23
2019-02-12T23:25:26.328Z,56.23
2019-02-12T23:27:57.685Z,52.47
2019-02-12T23:30:25.297Z,47.10
2019-02-12T23:32:53.947Z,53.23
2019-02-12T23:35:22.598Z,52.30
2019-02-12T23:37:51.248Z,50.03
2019-02-12T23:40:20.017Z,49.20
2019-02-12T23:42:48.648Z,49.40
2019-02-12T23:45:17.293Z,49.87
2019-02-12T23:47:45.929Z,51.30
2019-02-12T23:50:14.571Z,50.90
2019-02-12T23:52:43.233Z,52.87
2019-02-12T23:55:11.947Z,48.20
2019-02-12T23:57:40.618Z,49.00
